sensor_id;sensor_type;location;lat;lon;timestamp;P1;durP1;ratioP1;P2;durP2;ratioP2
51382;SDS011;37475;43.358;1.248;2023-05-10T00:01:31;17.65;;;3.53;;
51382;SDS011;37475;43.358;1.248;2023-05-10T00:03:57;15.20;;;3.88;;
51382;SDS011;37475;43.358;1.248;2023-05-10T00:06:23;13.05;;;2.95;;
51382;SDS011;37475;43.358;1.248;2023-05-10T00:08:49;16.55;;;3.25;;
51382;SDS011;37475;43.358;1.248;2023-05-10T00:11:15;16.02;;;3.00;;
51382;SDS011;37475;43.358;1.248;2023-05-10T00:13:40;13.05;;;3.17;;
51382;SDS011;37475;43.358;1.248;2023-05-10T00:16:06;22.20;;;3.90;;
51382;SDS011;37475;43.358;1.248;2023-05-10T00:18:32;15.13;;;3.30;;
51382;SDS011;37475;43.358;1.248;2023-05-10T00:20:58;17.33;;;3.28;;
51382;SDS011;37475;43.358;1.248;2023-05-10T00:23:23;14.00;;;3.05;;
51382;SDS011;37475;43.358;1.248;2023-05-10T00:25:49;20.05;;;3.75;;
51382;SDS011;37475;43.358;1.248;2023-05-10T00:28:15;14.02;;;3.67;;
51382;SDS011;37475;43.358;1.248;2023-05-10T00:30:41;15.90;;;3.30;;
51382;SDS011;37475;43.358;1.248;2023-05-10T00:33:06;23.02;;;3.63;;
51382;SDS011;37475;43.358;1.248;2023-05-10T00:35:32;14.13;;;3.38;;
51382;SDS011;37475;43.358;1.248;2023-05-10T00:37:58;24.17;;;3.60;;
51382;SDS011;37475;43.358;1.248;2023-05-10T00:40:24;14.07;;;3.47;;
51382;SDS011;37475;43.358;1.248;2023-05-10T00:42:50;18.08;;;2.80;;
51382;SDS011;37475;43.358;1.248;2023-05-10T00:45:16;17.02;;;3.17;;
51382;SDS011;37475;43.358;1.248;2023-05-10T00:47:42;16.75;;;2.83;;
51382;SDS011;37475;43.358;1.248;2023-05-10T00:50:08;18.08;;;3.38;;
51382;SDS011;37475;43.358;1.248;2023-05-10T00:52:34;17.58;;;3.58;;
51382;SDS011;37475;43.358;1.248;2023-05-10T00:55:00;16.30;;;3.50;;
51382;SDS011;37475;43.358;1.248;2023-05-10T00:57:28;16.48;;;3.22;;
51382;SDS011;37475;43.358;1.248;2023-05-10T00:59:54;19.15;;;3.80;;
51382;SDS011;37475;43.358;1.248;2023-05-10T01:02:19;23.05;;;3.58;;
51382;SDS011;37475;43.358;1.248;2023-05-10T01:04:45;17.10;;;3.33;;
51382;SDS011;37475;43.358;1.248;2023-05-10T01:07:11;18.92;;;3.92;;
51382;SDS011;37475;43.358;1.248;2023-05-10T01:09:37;22.50;;;4.13;;
51382;SDS011;37475;43.358;1.248;2023-05-10T01:12:03;15.18;;;3.35;;
51382;SDS011;37475;43.358;1.248;2023-05-10T01:14:31;14.93;;;3.83;;
51382;SDS011;37475;43.358;1.248;2023-05-10T01:16:58;19.65;;;4.30;;
51382;SDS011;37475;43.358;1.248;2023-05-10T01:19:26;19.42;;;4.15;;
51382;SDS011;37475;43.358;1.248;2023-05-10T01:22:04;20.02;;;4.88;;
51382;SDS011;37475;43.358;1.248;2023-05-10T01:36:13;22.00;;;4.53;;
51382;SDS011;37475;43.358;1.248;2023-05-10T01:47:04;7.93;;;2.10;;
51382;SDS011;37475;43.358;1.248;2023-05-10T01:50:02;16.50;;;3.30;;
51382;SDS011;37475;43.358;1.248;2023-05-10T01:52:33;15.20;;;3.53;;
51382;SDS011;37475;43.358;1.248;2023-05-10T01:55:08;13.40;;;3.10;;
51382;SDS011;37475;43.358;1.248;2023-05-10T01:57:39;16.17;;;2.92;;
51382;SDS011;37475;43.358;1.248;2023-05-10T02:00:08;16.25;;;2.80;;
51382;SDS011;37475;43.358;1.248;2023-05-10T02:02:36;12.35;;;2.40;;
51382;SDS011;37475;43.358;1.248;2023-05-10T02:05:05;10.38;;;2.70;;
51382;SDS011;37475;43.358;1.248;2023-05-10T02:07:33;18.08;;;3.25;;
51382;SDS011;37475;43.358;1.248;2023-05-10T02:10:04;12.48;;;2.45;;
51382;SDS011;37475;43.358;1.248;2023-05-10T02:12:35;16.88;;;4.10;;
51382;SDS011;37475;43.358;1.248;2023-05-10T02:15:05;13.38;;;3.63;;
51382;SDS011;37475;43.358;1.248;2023-05-10T02:17:32;16.20;;;2.97;;
51382;SDS011;37475;43.358;1.248;2023-05-10T02:20:01;15.63;;;3.13;;
51382;SDS011;37475;43.358;1.248;2023-05-10T02:22:28;17.38;;;2.90;;
51382;SDS011;37475;43.358;1.248;2023-05-10T02:24:55;17.75;;;3.67;;
51382;SDS011;37475;43.358;1.248;2023-05-10T02:27:23;20.10;;;3.33;;
51382;SDS011;37475;43.358;1.248;2023-05-10T02:29:50;17.90;;;2.75;;
51382;SDS011;37475;43.358;1.248;2023-05-10T02:32:17;20.30;;;3.42;;
51382;SDS011;37475;43.358;1.248;2023-05-10T02:34:44;21.25;;;3.40;;
51382;SDS011;37475;43.358;1.248;2023-05-10T02:37:12;20.45;;;4.07;;
51382;SDS011;37475;43.358;1.248;2023-05-10T02:39:43;17.67;;;3.05;;
51382;SDS011;37475;43.358;1.248;2023-05-10T02:42:13;20.02;;;3.28;;
51382;SDS011;37475;43.358;1.248;2023-05-10T02:44:45;15.02;;;3.03;;
51382;SDS011;37475;43.358;1.248;2023-05-10T02:47:14;18.17;;;3.90;;
51382;SDS011;37475;43.358;1.248;2023-05-10T02:49:40;20.33;;;3.17;;
51382;SDS011;37475;43.358;1.248;2023-05-10T02:52:06;14.68;;;3.03;;
51382;SDS011;37475;43.358;1.248;2023-05-10T02:54:34;17.58;;;3.67;;
51382;SDS011;37475;43.358;1.248;2023-05-10T02:57:10;14.80;;;2.63;;
51382;SDS011;37475;43.358;1.248;2023-05-10T02:59:41;19.13;;;3.30;;
51382;SDS011;37475;43.358;1.248;2023-05-10T03:02:10;18.30;;;2.88;;
51382;SDS011;37475;43.358;1.248;2023-05-10T03:04:40;19.20;;;2.90;;
51382;SDS011;37475;43.358;1.248;2023-05-10T03:07:05;16.45;;;2.60;;
51382;SDS011;37475;43.358;1.248;2023-05-10T03:09:32;15.52;;;2.90;;
51382;SDS011;37475;43.358;1.248;2023-05-10T03:20:21;10.35;;;2.40;;
51382;SDS011;37475;43.358;1.248;2023-05-10T03:22:52;8.65;;;1.75;;
51382;SDS011;37475;43.358;1.248;2023-05-10T03:25:23;10.10;;;1.65;;
51382;SDS011;37475;43.358;1.248;2023-05-10T03:27:49;9.43;;;1.75;;
51382;SDS011;37475;43.358;1.248;2023-05-10T03:30:17;11.93;;;1.63;;
51382;SDS011;37475;43.358;1.248;2023-05-10T03:32:43;8.90;;;2.08;;
51382;SDS011;37475;43.358;1.248;2023-05-10T03:35:09;8.15;;;1.58;;
51382;SDS011;37475;43.358;1.248;2023-05-10T03:37:37;8.75;;;1.50;;
51382;SDS011;37475;43.358;1.248;2023-05-10T03:40:03;10.20;;;1.55;;
51382;SDS011;37475;43.358;1.248;2023-05-10T03:42:30;9.38;;;1.75;;
51382;SDS011;37475;43.358;1.248;2023-05-10T03:44:56;10.65;;;1.90;;
51382;SDS011;37475;43.358;1.248;2023-05-10T03:47:22;11.35;;;1.70;;
51382;SDS011;37475;43.358;1.248;2023-05-10T03:49:48;9.48;;;1.50;;
51382;SDS011;37475;43.358;1.248;2023-05-10T03:52:13;9.77;;;1.70;;
51382;SDS011;37475;43.358;1.248;2023-05-10T03:54:39;11.25;;;2.40;;
51382;SDS011;37475;43.358;1.248;2023-05-10T03:57:05;7.65;;;2.15;;
51382;SDS011;37475;43.358;1.248;2023-05-10T03:59:31;10.55;;;2.00;;
51382;SDS011;37475;43.358;1.248;2023-05-10T04:01:56;11.50;;;1.83;;
51382;SDS011;37475;43.358;1.248;2023-05-10T04:04:22;12.27;;;2.22;;
51382;SDS011;37475;43.358;1.248;2023-05-10T04:06:48;12.13;;;1.85;;
51382;SDS011;37475;43.358;1.248;2023-05-10T04:09:14;11.13;;;2.38;;
51382;SDS011;37475;43.358;1.248;2023-05-10T04:11:41;11.63;;;2.33;;
51382;SDS011;37475;43.358;1.248;2023-05-10T04:14:07;14.02;;;2.58;;
51382;SDS011;37475;43.358;1.248;2023-05-10T04:16:33;13.35;;;2.08;;
51382;SDS011;37475;43.358;1.248;2023-05-10T04:18:59;11.30;;;2.03;;
51382;SDS011;37475;43.358;1.248;2023-05-10T04:21:25;9.10;;;2.17;;
51382;SDS011;37475;43.358;1.248;2023-05-10T04:23:51;12.88;;;1.98;;
51382;SDS011;37475;43.358;1.248;2023-05-10T04:26:16;16.17;;;2.55;;
51382;SDS011;37475;43.358;1.248;2023-05-10T04:28:42;11.73;;;2.10;;
51382;SDS011;37475;43.358;1.248;2023-05-10T04:31:08;12.52;;;2.13;;
51382;SDS011;37475;43.358;1.248;2023-05-10T04:33:35;12.00;;;2.15;;
51382;SDS011;37475;43.358;1.248;2023-05-10T04:36:02;8.23;;;2.10;;
51382;SDS011;37475;43.358;1.248;2023-05-10T04:38:28;11.65;;;2.60;;
51382;SDS011;37475;43.358;1.248;2023-05-10T04:40:55;17.58;;;3.00;;
51382;SDS011;37475;43.358;1.248;2023-05-10T04:43:36;15.93;;;3.05;;
51382;SDS011;37475;43.358;1.248;2023-05-10T04:46:02;9.43;;;2.28;;
51382;SDS011;37475;43.358;1.248;2023-05-10T04:48:30;13.77;;;2.67;;
51382;SDS011;37475;43.358;1.248;2023-05-10T04:50:56;17.10;;;3.00;;
51382;SDS011;37475;43.358;1.248;2023-05-10T04:53:21;8.32;;;2.13;;
51382;SDS011;37475;43.358;1.248;2023-05-10T04:55:47;15.57;;;2.97;;
51382;SDS011;37475;43.358;1.248;2023-05-10T04:58:13;20.02;;;2.95;;
51382;SDS011;37475;43.358;1.248;2023-05-10T05:00:39;12.05;;;2.53;;
51382;SDS011;37475;43.358;1.248;2023-05-10T05:03:05;16.73;;;2.78;;
51382;SDS011;37475;43.358;1.248;2023-05-10T05:05:31;14.50;;;3.00;;
51382;SDS011;37475;43.358;1.248;2023-05-10T05:07:57;19.52;;;2.95;;
51382;SDS011;37475;43.358;1.248;2023-05-10T05:10:23;15.77;;;2.70;;
51382;SDS011;37475;43.358;1.248;2023-05-10T05:12:48;19.25;;;3.17;;
51382;SDS011;37475;43.358;1.248;2023-05-10T05:15:14;18.52;;;2.85;;
51382;SDS011;37475;43.358;1.248;2023-05-10T05:17:41;18.45;;;3.45;;
51382;SDS011;37475;43.358;1.248;2023-05-10T05:20:08;16.17;;;2.95;;
51382;SDS011;37475;43.358;1.248;2023-05-10T05:22:36;17.88;;;3.35;;
51382;SDS011;37475;43.358;1.248;2023-05-10T05:25:02;17.63;;;2.80;;
51382;SDS011;37475;43.358;1.248;2023-05-10T05:27:28;14.02;;;2.90;;
51382;SDS011;37475;43.358;1.248;2023-05-10T05:29:58;17.73;;;2.95;;
51382;SDS011;37475;43.358;1.248;2023-05-10T05:32:24;17.17;;;2.90;;
51382;SDS011;37475;43.358;1.248;2023-05-10T05:34:50;15.32;;;2.92;;
51382;SDS011;37475;43.358;1.248;2023-05-10T05:37:17;16.70;;;3.00;;
51382;SDS011;37475;43.358;1.248;2023-05-10T05:39:45;16.52;;;2.85;;
51382;SDS011;37475;43.358;1.248;2023-05-10T05:42:11;13.73;;;2.72;;
51382;SDS011;37475;43.358;1.248;2023-05-10T05:44:38;16.83;;;2.80;;
51382;SDS011;37475;43.358;1.248;2023-05-10T05:47:04;19.70;;;3.28;;
51382;SDS011;37475;43.358;1.248;2023-05-10T05:49:30;16.02;;;2.80;;
51382;SDS011;37475;43.358;1.248;2023-05-10T05:52:03;17.30;;;2.72;;
51382;SDS011;37475;43.358;1.248;2023-05-10T05:54:29;18.95;;;3.55;;
51382;SDS011;37475;43.358;1.248;2023-05-10T05:56:56;18.85;;;3.65;;
51382;SDS011;37475;43.358;1.248;2023-05-10T05:59:24;17.52;;;2.88;;
51382;SDS011;37475;43.358;1.248;2023-05-10T06:01:49;20.73;;;2.90;;
51382;SDS011;37475;43.358;1.248;2023-05-10T06:04:16;18.85;;;2.83;;
51382;SDS011;37475;43.358;1.248;2023-05-10T06:06:42;19.00;;;2.90;;
51382;SDS011;37475;43.358;1.248;2023-05-10T06:09:08;19.60;;;2.92;;
51382;SDS011;37475;43.358;1.248;2023-05-10T06:11:34;18.52;;;2.72;;
51382;SDS011;37475;43.358;1.248;2023-05-10T06:14:00;14.25;;;2.45;;
51382;SDS011;37475;43.358;1.248;2023-05-10T06:16:28;14.75;;;2.65;;
51382;SDS011;37475;43.358;1.248;2023-05-10T06:18:54;12.82;;;2.45;;
51382;SDS011;37475;43.358;1.248;2023-05-10T06:21:20;14.32;;;2.40;;
51382;SDS011;37475;43.358;1.248;2023-05-10T06:23:46;17.98;;;3.00;;
51382;SDS011;37475;43.358;1.248;2023-05-10T06:26:12;12.75;;;2.00;;
51382;SDS011;37475;43.358;1.248;2023-05-10T06:28:38;15.05;;;2.30;;
51382;SDS011;37475;43.358;1.248;2023-05-10T06:31:05;14.40;;;2.42;;
51382;SDS011;37475;43.358;1.248;2023-05-10T06:33:31;16.05;;;2.30;;
51382;SDS011;37475;43.358;1.248;2023-05-10T06:35:58;12.95;;;2.00;;
51382;SDS011;37475;43.358;1.248;2023-05-10T06:38:24;15.27;;;2.33;;
51382;SDS011;37475;43.358;1.248;2023-05-10T06:40:50;17.27;;;2.28;;
51382;SDS011;37475;43.358;1.248;2023-05-10T06:43:16;16.83;;;2.45;;
51382;SDS011;37475;43.358;1.248;2023-05-10T06:45:42;12.30;;;1.92;;
51382;SDS011;37475;43.358;1.248;2023-05-10T06:48:08;14.00;;;2.38;;
51382;SDS011;37475;43.358;1.248;2023-05-10T06:50:33;17.15;;;2.60;;
51382;SDS011;37475;43.358;1.248;2023-05-10T06:52:59;15.80;;;2.22;;
51382;SDS011;37475;43.358;1.248;2023-05-10T06:55:26;17.33;;;3.05;;
51382;SDS011;37475;43.358;1.248;2023-05-10T06:57:53;12.35;;;2.38;;
51382;SDS011;37475;43.358;1.248;2023-05-10T07:00:19;13.48;;;2.90;;
51382;SDS011;37475;43.358;1.248;2023-05-10T07:02:45;14.57;;;2.45;;
51382;SDS011;37475;43.358;1.248;2023-05-10T07:05:12;14.25;;;2.67;;
51382;SDS011;37475;43.358;1.248;2023-05-10T07:07:38;10.77;;;2.45;;
51382;SDS011;37475;43.358;1.248;2023-05-10T07:10:04;14.35;;;2.15;;
51382;SDS011;37475;43.358;1.248;2023-05-10T07:12:32;9.73;;;1.80;;
51382;SDS011;37475;43.358;1.248;2023-05-10T07:14:57;14.68;;;2.63;;
51382;SDS011;37475;43.358;1.248;2023-05-10T07:17:23;15.77;;;2.17;;
51382;SDS011;37475;43.358;1.248;2023-05-10T07:19:49;15.20;;;2.55;;
51382;SDS011;37475;43.358;1.248;2023-05-10T07:22:15;12.98;;;2.33;;
51382;SDS011;37475;43.358;1.248;2023-05-10T07:24:42;12.07;;;2.28;;
51382;SDS011;37475;43.358;1.248;2023-05-10T07:27:08;14.88;;;2.63;;
51382;SDS011;37475;43.358;1.248;2023-05-10T07:29:34;12.82;;;2.38;;
51382;SDS011;37475;43.358;1.248;2023-05-10T07:32:00;13.32;;;2.50;;
51382;SDS011;37475;43.358;1.248;2023-05-10T07:34:26;13.30;;;2.45;;
51382;SDS011;37475;43.358;1.248;2023-05-10T07:36:53;8.60;;;1.90;;
51382;SDS011;37475;43.358;1.248;2023-05-10T07:39:19;13.55;;;2.13;;
51382;SDS011;37475;43.358;1.248;2023-05-10T07:41:45;17.75;;;2.22;;
51382;SDS011;37475;43.358;1.248;2023-05-10T07:44:11;14.75;;;2.30;;
51382;SDS011;37475;43.358;1.248;2023-05-10T07:46:37;12.75;;;2.05;;
51382;SDS011;37475;43.358;1.248;2023-05-10T07:49:03;11.68;;;2.30;;
51382;SDS011;37475;43.358;1.248;2023-05-10T07:51:29;13.90;;;1.95;;
51382;SDS011;37475;43.358;1.248;2023-05-10T07:53:55;7.20;;;1.10;;
51382;SDS011;37475;43.358;1.248;2023-05-10T07:58:54;6.30;;;1.52;;
51382;SDS011;37475;43.358;1.248;2023-05-10T08:01:21;5.60;;;1.23;;
51382;SDS011;37475;43.358;1.248;2023-05-10T08:03:47;5.05;;;1.40;;
51382;SDS011;37475;43.358;1.248;2023-05-10T08:06:14;9.15;;;1.45;;
51382;SDS011;37475;43.358;1.248;2023-05-10T08:08:40;8.52;;;1.60;;
51382;SDS011;37475;43.358;1.248;2023-05-10T08:11:07;7.80;;;1.40;;
51382;SDS011;37475;43.358;1.248;2023-05-10T08:13:32;12.27;;;1.60;;
51382;SDS011;37475;43.358;1.248;2023-05-10T08:15:58;8.00;;;1.38;;
51382;SDS011;37475;43.358;1.248;2023-05-10T08:18:25;10.23;;;1.92;;
51382;SDS011;37475;43.358;1.248;2023-05-10T08:20:51;9.93;;;1.08;;
51382;SDS011;37475;43.358;1.248;2023-05-10T08:23:17;6.30;;;1.27;;
51382;SDS011;37475;43.358;1.248;2023-05-10T08:25:42;7.20;;;1.40;;
51382;SDS011;37475;43.358;1.248;2023-05-10T08:28:08;6.05;;;1.48;;
51382;SDS011;37475;43.358;1.248;2023-05-10T08:30:34;7.93;;;1.42;;
51382;SDS011;37475;43.358;1.248;2023-05-10T08:33:00;8.93;;;1.33;;
51382;SDS011;37475;43.358;1.248;2023-05-10T08:35:25;7.78;;;1.48;;
51382;SDS011;37475;43.358;1.248;2023-05-10T08:37:51;6.07;;;1.60;;
51382;SDS011;37475;43.358;1.248;2023-05-10T08:40:18;5.72;;;1.13;;
51382;SDS011;37475;43.358;1.248;2023-05-10T08:42:51;7.50;;;1.38;;
51382;SDS011;37475;43.358;1.248;2023-05-10T08:45:31;4.28;;;0.98;;
51382;SDS011;37475;43.358;1.248;2023-05-10T08:48:05;9.18;;;1.85;;
51382;SDS011;37475;43.358;1.248;2023-05-10T08:50:33;10.05;;;1.63;;
51382;SDS011;37475;43.358;1.248;2023-05-10T08:53:06;10.95;;;1.38;;
51382;SDS011;37475;43.358;1.248;2023-05-10T08:55:38;8.77;;;1.85;;
51382;SDS011;37475;43.358;1.248;2023-05-10T08:58:07;7.82;;;1.60;;
51382;SDS011;37475;43.358;1.248;2023-05-10T09:00:34;9.82;;;1.98;;
51382;SDS011;37475;43.358;1.248;2023-05-10T09:03:02;8.55;;;1.88;;
51382;SDS011;37475;43.358;1.248;2023-05-10T09:05:29;10.70;;;1.80;;
51382;SDS011;37475;43.358;1.248;2023-05-10T09:07:55;8.40;;;1.33;;
51382;SDS011;37475;43.358;1.248;2023-05-10T09:10:21;9.18;;;1.60;;
51382;SDS011;37475;43.358;1.248;2023-05-10T09:12:50;8.98;;;1.55;;
51382;SDS011;37475;43.358;1.248;2023-05-10T09:15:18;8.45;;;1.40;;
51382;SDS011;37475;43.358;1.248;2023-05-10T09:17:45;12.30;;;2.42;;
51382;SDS011;37475;43.358;1.248;2023-05-10T09:20:12;9.70;;;1.80;;
51382;SDS011;37475;43.358;1.248;2023-05-10T09:22:38;10.55;;;2.05;;
51382;SDS011;37475;43.358;1.248;2023-05-10T09:27:41;13.00;;;1.40;;
51382;SDS011;37475;43.358;1.248;2023-05-10T09:30:23;10.32;;;2.28;;
51382;SDS011;37475;43.358;1.248;2023-05-10T09:32:51;12.02;;;2.40;;
51382;SDS011;37475;43.358;1.248;2023-05-10T09:35:19;12.43;;;2.30;;
51382;SDS011;37475;43.358;1.248;2023-05-10T09:37:48;12.88;;;2.10;;
51382;SDS011;37475;43.358;1.248;2023-05-10T09:40:17;7.20;;;1.50;;
51382;SDS011;37475;43.358;1.248;2023-05-10T09:42:52;9.77;;;2.00;;
51382;SDS011;37475;43.358;1.248;2023-05-10T09:45:34;5.32;;;1.20;;
51382;SDS011;37475;43.358;1.248;2023-05-10T09:48:01;7.15;;;1.30;;
51382;SDS011;37475;43.358;1.248;2023-05-10T09:50:29;13.23;;;1.70;;
51382;SDS011;37475;43.358;1.248;2023-05-10T09:52:56;9.50;;;1.40;;
51382;SDS011;37475;43.358;1.248;2023-05-10T09:55:40;10.82;;;1.60;;
51382;SDS011;37475;43.358;1.248;2023-05-10T09:58:09;6.68;;;1.40;;
51382;SDS011;37475;43.358;1.248;2023-05-10T10:00:36;5.40;;;1.25;;
51382;SDS011;37475;43.358;1.248;2023-05-10T10:03:17;7.57;;;1.10;;
51382;SDS011;37475;43.358;1.248;2023-05-10T10:05:46;6.93;;;2.15;;
51382;SDS011;37475;43.358;1.248;2023-05-10T10:08:13;9.60;;;1.63;;
51382;SDS011;37475;43.358;1.248;2023-05-10T10:10:40;8.18;;;1.50;;
51382;SDS011;37475;43.358;1.248;2023-05-10T10:13:07;7.22;;;1.73;;
51382;SDS011;37475;43.358;1.248;2023-05-10T10:15:33;9.57;;;1.80;;
51382;SDS011;37475;43.358;1.248;2023-05-10T10:18:00;12.38;;;1.60;;
51382;SDS011;37475;43.358;1.248;2023-05-10T10:20:28;11.65;;;1.50;;
51382;SDS011;37475;43.358;1.248;2023-05-10T10:22:54;13.88;;;2.47;;
51382;SDS011;37475;43.358;1.248;2023-05-10T10:25:20;10.23;;;1.83;;
51382;SDS011;37475;43.358;1.248;2023-05-10T10:33:30;8.70;;;1.77;;
51382;SDS011;37475;43.358;1.248;2023-05-10T10:36:05;7.22;;;1.77;;
51382;SDS011;37475;43.358;1.248;2023-05-10T10:47:05;6.57;;;1.20;;
51382;SDS011;37475;43.358;1.248;2023-05-10T10:55:00;6.85;;;1.25;;
51382;SDS011;37475;43.358;1.248;2023-05-10T10:57:55;7.10;;;1.45;;
51382;SDS011;37475;43.358;1.248;2023-05-10T11:00:31;6.93;;;1.13;;
51382;SDS011;37475;43.358;1.248;2023-05-10T11:03:06;6.85;;;1.40;;
51382;SDS011;37475;43.358;1.248;2023-05-10T11:05:40;5.80;;;1.23;;
51382;SDS011;37475;43.358;1.248;2023-05-10T11:08:12;7.85;;;1.13;;
51382;SDS011;37475;43.358;1.248;2023-05-10T11:18:51;8.30;;;1.20;;
51382;SDS011;37475;43.358;1.248;2023-05-10T11:21:29;5.50;;;1.33;;
51382;SDS011;37475;43.358;1.248;2023-05-10T11:23:58;6.32;;;1.20;;
51382;SDS011;37475;43.358;1.248;2023-05-10T11:26:25;6.28;;;1.00;;
51382;SDS011;37475;43.358;1.248;2023-05-10T11:29:01;9.75;;;1.23;;
51382;SDS011;37475;43.358;1.248;2023-05-10T11:31:28;4.85;;;1.10;;
51382;SDS011;37475;43.358;1.248;2023-05-10T11:33:54;8.50;;;1.40;;
51382;SDS011;37475;43.358;1.248;2023-05-10T11:36:29;5.35;;;1.13;;
51382;SDS011;37475;43.358;1.248;2023-05-10T11:38:59;10.05;;;1.52;;
51382;SDS011;37475;43.358;1.248;2023-05-10T11:41:26;9.13;;;1.83;;
51382;SDS011;37475;43.358;1.248;2023-05-10T11:43:53;10.00;;;1.63;;
51382;SDS011;37475;43.358;1.248;2023-05-10T11:46:22;7.40;;;1.55;;
51382;SDS011;37475;43.358;1.248;2023-05-10T11:48:51;9.00;;;1.60;;
51382;SDS011;37475;43.358;1.248;2023-05-10T11:51:26;11.82;;;1.77;;
51382;SDS011;37475;43.358;1.248;2023-05-10T11:53:53;7.28;;;1.67;;
51382;SDS011;37475;43.358;1.248;2023-05-10T11:56:20;7.15;;;1.63;;
51382;SDS011;37475;43.358;1.248;2023-05-10T11:58:52;7.72;;;1.70;;
51382;SDS011;37475;43.358;1.248;2023-05-10T12:01:22;7.35;;;1.58;;
51382;SDS011;37475;43.358;1.248;2023-05-10T12:03:51;9.63;;;1.90;;
51382;SDS011;37475;43.358;1.248;2023-05-10T12:06:20;11.55;;;1.63;;
51382;SDS011;37475;43.358;1.248;2023-05-10T12:08:47;8.70;;;1.50;;
51382;SDS011;37475;43.358;1.248;2023-05-10T12:11:17;7.72;;;1.67;;
51382;SDS011;37475;43.358;1.248;2023-05-10T12:13:43;6.78;;;1.50;;
51382;SDS011;37475;43.358;1.248;2023-05-10T12:16:13;7.78;;;1.65;;
51382;SDS011;37475;43.358;1.248;2023-05-10T12:18:43;8.23;;;1.88;;
51382;SDS011;37475;43.358;1.248;2023-05-10T12:21:11;7.95;;;1.50;;
51382;SDS011;37475;43.358;1.248;2023-05-10T12:23:40;9.05;;;1.70;;
51382;SDS011;37475;43.358;1.248;2023-05-10T12:26:08;8.38;;;2.13;;
51382;SDS011;37475;43.358;1.248;2023-05-10T12:28:37;10.13;;;1.55;;
51382;SDS011;37475;43.358;1.248;2023-05-10T12:31:05;7.47;;;1.50;;
51382;SDS011;37475;43.358;1.248;2023-05-10T12:33:38;9.88;;;2.08;;
51382;SDS011;37475;43.358;1.248;2023-05-10T12:36:08;7.65;;;1.60;;
51382;SDS011;37475;43.358;1.248;2023-05-10T12:38:39;9.55;;;1.95;;
51382;SDS011;37475;43.358;1.248;2023-05-10T12:41:14;8.38;;;1.90;;
51382;SDS011;37475;43.358;1.248;2023-05-10T12:43:41;7.80;;;1.52;;
51382;SDS011;37475;43.358;1.248;2023-05-10T12:46:08;8.02;;;1.60;;
51382;SDS011;37475;43.358;1.248;2023-05-10T12:48:42;8.75;;;1.40;;
51382;SDS011;37475;43.358;1.248;2023-05-10T12:51:10;7.72;;;1.60;;
51382;SDS011;37475;43.358;1.248;2023-05-10T12:53:42;6.65;;;1.10;;
51382;SDS011;37475;43.358;1.248;2023-05-10T12:56:10;9.35;;;1.63;;
51382;SDS011;37475;43.358;1.248;2023-05-10T12:58:36;4.55;;;0.95;;
51382;SDS011;37475;43.358;1.248;2023-05-10T13:01:04;5.95;;;1.60;;
51382;SDS011;37475;43.358;1.248;2023-05-10T13:03:30;5.10;;;1.35;;
51382;SDS011;37475;43.358;1.248;2023-05-10T13:05:56;6.63;;;1.35;;
51382;SDS011;37475;43.358;1.248;2023-05-10T13:08:22;4.95;;;1.23;;
51382;SDS011;37475;43.358;1.248;2023-05-10T13:10:48;8.13;;;1.67;;
51382;SDS011;37475;43.358;1.248;2023-05-10T13:13:14;8.27;;;1.55;;
51382;SDS011;37475;43.358;1.248;2023-05-10T13:15:40;9.07;;;1.73;;
51382;SDS011;37475;43.358;1.248;2023-05-10T13:18:06;6.10;;;1.35;;
51382;SDS011;37475;43.358;1.248;2023-05-10T13:20:31;8.10;;;1.10;;
51382;SDS011;37475;43.358;1.248;2023-05-10T13:22:57;7.82;;;1.40;;
51382;SDS011;37475;43.358;1.248;2023-05-10T13:25:23;6.10;;;1.20;;
51382;SDS011;37475;43.358;1.248;2023-05-10T13:27:49;7.13;;;1.50;;
51382;SDS011;37475;43.358;1.248;2023-05-10T13:30:16;6.35;;;1.30;;
51382;SDS011;37475;43.358;1.248;2023-05-10T13:32:41;8.07;;;2.13;;
51382;SDS011;37475;43.358;1.248;2023-05-10T13:35:07;7.97;;;1.20;;
51382;SDS011;37475;43.358;1.248;2023-05-10T13:37:33;5.53;;;1.40;;
51382;SDS011;37475;43.358;1.248;2023-05-10T13:40:02;6.60;;;1.42;;
51382;SDS011;37475;43.358;1.248;2023-05-10T13:42:29;5.75;;;1.20;;
51382;SDS011;37475;43.358;1.248;2023-05-10T13:44:56;6.63;;;1.17;;
51382;SDS011;37475;43.358;1.248;2023-05-10T13:47:22;4.05;;;1.13;;
51382;SDS011;37475;43.358;1.248;2023-05-10T13:49:48;7.90;;;1.55;;
51382;SDS011;37475;43.358;1.248;2023-05-10T13:52:13;7.18;;;1.58;;
51382;SDS011;37475;43.358;1.248;2023-05-10T13:54:40;9.75;;;1.70;;
51382;SDS011;37475;43.358;1.248;2023-05-10T13:57:06;12.63;;;1.92;;
51382;SDS011;37475;43.358;1.248;2023-05-10T13:59:32;7.40;;;1.58;;
51382;SDS011;37475;43.358;1.248;2023-05-10T14:01:58;7.22;;;1.60;;
51382;SDS011;37475;43.358;1.248;2023-05-10T14:04:24;6.28;;;1.52;;
51382;SDS011;37475;43.358;1.248;2023-05-10T14:06:50;6.53;;;1.55;;
51382;SDS011;37475;43.358;1.248;2023-05-10T14:09:17;7.18;;;1.40;;
51382;SDS011;37475;43.358;1.248;2023-05-10T14:11:43;6.68;;;1.73;;
51382;SDS011;37475;43.358;1.248;2023-05-10T14:14:10;3.15;;;0.90;;
51382;SDS011;37475;43.358;1.248;2023-05-10T14:16:38;6.18;;;1.13;;
51382;SDS011;37475;43.358;1.248;2023-05-10T14:19:08;6.03;;;0.95;;
51382;SDS011;37475;43.358;1.248;2023-05-10T14:21:34;8.00;;;1.25;;
51382;SDS011;37475;43.358;1.248;2023-05-10T14:24:00;3.50;;;1.00;;
51382;SDS011;37475;43.358;1.248;2023-05-10T14:26:26;3.55;;;0.98;;
51382;SDS011;37475;43.358;1.248;2023-05-10T14:28:52;7.18;;;1.00;;
51382;SDS011;37475;43.358;1.248;2023-05-10T14:31:18;6.25;;;1.15;;
51382;SDS011;37475;43.358;1.248;2023-05-10T14:33:45;5.32;;;1.30;;
51382;SDS011;37475;43.358;1.248;2023-05-10T14:36:12;5.95;;;1.45;;
51382;SDS011;37475;43.358;1.248;2023-05-10T14:38:38;7.10;;;1.42;;
51382;SDS011;37475;43.358;1.248;2023-05-10T14:41:05;5.55;;;1.10;;
51382;SDS011;37475;43.358;1.248;2023-05-10T14:43:31;6.03;;;1.20;;
51382;SDS011;37475;43.358;1.248;2023-05-10T14:45:57;5.00;;;1.00;;
51382;SDS011;37475;43.358;1.248;2023-05-10T14:48:23;3.30;;;1.10;;
51382;SDS011;37475;43.358;1.248;2023-05-10T14:50:49;5.00;;;1.10;;
51382;SDS011;37475;43.358;1.248;2023-05-10T14:53:15;5.43;;;1.30;;
51382;SDS011;37475;43.358;1.248;2023-05-10T14:55:41;4.80;;;1.00;;
51382;SDS011;37475;43.358;1.248;2023-05-10T14:58:07;4.70;;;1.35;;
51382;SDS011;37475;43.358;1.248;2023-05-10T15:00:33;8.52;;;1.48;;
51382;SDS011;37475;43.358;1.248;2023-05-10T15:02:59;7.80;;;1.27;;
51382;SDS011;37475;43.358;1.248;2023-05-10T15:05:24;3.13;;;0.93;;
51382;SDS011;37475;43.358;1.248;2023-05-10T15:07:50;5.43;;;1.10;;
51382;SDS011;37475;43.358;1.248;2023-05-10T15:10:16;5.43;;;1.15;;
51382;SDS011;37475;43.358;1.248;2023-05-10T15:12:42;9.05;;;1.20;;
51382;SDS011;37475;43.358;1.248;2023-05-10T15:15:08;4.55;;;1.10;;
51382;SDS011;37475;43.358;1.248;2023-05-10T15:17:34;3.95;;;1.10;;
51382;SDS011;37475;43.358;1.248;2023-05-10T15:20:00;5.80;;;0.82;;
51382;SDS011;37475;43.358;1.248;2023-05-10T15:22:29;5.07;;;1.27;;
51382;SDS011;37475;43.358;1.248;2023-05-10T15:24:56;5.43;;;0.88;;
51382;SDS011;37475;43.358;1.248;2023-05-10T15:27:24;7.57;;;1.20;;
51382;SDS011;37475;43.358;1.248;2023-05-10T15:29:50;5.95;;;1.10;;
51382;SDS011;37475;43.358;1.248;2023-05-10T15:32:17;6.35;;;1.27;;
51382;SDS011;37475;43.358;1.248;2023-05-10T15:34:42;6.68;;;1.10;;
51382;SDS011;37475;43.358;1.248;2023-05-10T15:37:08;8.20;;;1.67;;
51382;SDS011;37475;43.358;1.248;2023-05-10T15:39:34;6.43;;;1.30;;
51382;SDS011;37475;43.358;1.248;2023-05-10T15:42:00;8.93;;;1.67;;
51382;SDS011;37475;43.358;1.248;2023-05-10T15:44:26;8.02;;;1.38;;